createdAt,value
2022-08-21T00:42:53.793Z,99.99
2022-08-21T00:43:54.786Z,99.99
2022-08-21T00:48:52.316Z,99.99
2022-08-21T00:49:52.348Z,99.99
2022-08-21T00:52:52.431Z,99.99
2022-08-21T01:04:42.556Z,99.99
2022-08-21T01:05:41.381Z,99.99
2022-08-21T01:06:41.398Z,99.99
2022-08-21T01:07:41.439Z,99.99
2022-08-21T01:08:46.906Z,99.99
2022-08-21T01:09:42.912Z,99.99
2022-08-21T01:10:41.726Z,99.99
2022-08-21T01:12:14.964Z,99.99
2022-08-21T01:14:14.819Z,99.99
2022-08-21T01:14:41.643Z,99.99
2022-08-21T01:15:42.067Z,99.99
2022-08-21T01:16:41.697Z,99.99
2022-08-21T01:17:41.925Z,99.99
2022-08-21T01:18:41.740Z,99.99
2022-08-21T01:19:41.772Z,99.99
2022-08-21T01:20:44.618Z,99.99
2022-08-21T01:22:34.391Z,99.99
2022-08-21T01:23:34.420Z,99.99
2022-08-21T01:24:34.845Z,99.99
2022-08-21T01:25:34.874Z,99.99
2022-08-21T01:26:34.800Z,99.99
2022-08-21T01:27:34.526Z,99.99
2022-08-21T01:28:34.553Z,99.99
2022-08-21T01:29:34.583Z,99.99
2022-08-21T01:30:34.609Z,99.99
2022-08-21T01:31:34.637Z,99.99
2022-08-21T01:32:34.667Z,99.99
2022-08-21T01:33:34.697Z,99.99
2022-08-21T01:34:34.725Z,99.99
2022-08-21T01:35:34.754Z,99.99
2022-08-21T01:36:34.780Z,99.99
2022-08-21T01:37:34.813Z,99.99
2022-08-21T01:38:34.839Z,99.99
2022-08-21T01:39:34.912Z,99.99
2022-08-21T01:40:34.895Z,99.99
2022-08-21T01:41:34.923Z,99.99
2022-08-21T01:42:34.950Z,99.99
2022-08-21T01:43:39.664Z,99.99
2022-08-21T01:44:35.007Z,99.99
2022-08-21T01:45:35.038Z,99.99
2022-08-21T01:46:35.064Z,99.99
2022-08-21T01:47:35.094Z,99.99
2022-08-21T01:48:35.120Z,99.99
2022-08-21T01:49:35.151Z,99.99
2022-08-21T01:50:35.178Z,99.99
2022-08-21T01:51:35.206Z,99.99
2022-08-21T01:52:35.233Z,99.99
2022-08-21T01:53:37.887Z,99.99
2022-08-21T01:54:35.298Z,99.99
2022-08-21T01:55:35.319Z,99.99
2022-08-21T01:56:36.157Z,99.99
2022-08-21T01:57:35.390Z,99.99
2022-08-21T01:58:35.401Z,99.99
2022-08-21T01:59:35.444Z,99.99
2022-08-21T02:00:35.529Z,99.99
2022-08-21T02:01:35.487Z,99.99
2022-08-21T02:02:35.511Z,99.99
2022-08-21T02:04:35.571Z,99.99
2022-08-21T02:06:18.151Z,99.99
2022-08-21T02:07:18.236Z,99.99
2022-08-21T02:08:18.204Z,99.99
2022-08-21T02:09:18.231Z,99.99
2022-08-21T02:10:18.258Z,99.99
2022-08-21T02:11:18.287Z,99.99
2022-08-21T02:12:18.315Z,99.99
2022-08-21T02:13:18.354Z,99.99
2022-08-21T02:14:32.450Z,99.99
2022-08-21T02:15:18.398Z,99.99
2022-08-21T02:16:19.413Z,99.99
2022-08-21T02:17:18.466Z,99.99
2022-08-21T02:18:18.480Z,99.99
2022-08-21T02:19:18.509Z,99.99
2022-08-21T02:20:18.536Z,99.99
2022-08-21T02:22:18.606Z,99.99
2022-08-21T02:24:18.661Z,99.99
2022-08-21T02:26:18.720Z,99.99
2022-08-21T02:27:18.948Z,99.99
2022-08-21T02:28:18.776Z,99.99
2022-08-21T02:29:19.001Z,99.99
2022-08-21T02:30:18.817Z,99.99
2022-08-21T02:31:18.845Z,99.99
2022-08-21T02:32:18.887Z,99.99
2022-08-21T02:33:18.901Z,99.99
2022-08-21T02:34:19.148Z,99.99
2022-08-21T02:35:19.278Z,99.99
2022-08-21T02:36:19.202Z,99.99
2022-08-21T02:37:19.026Z,99.99
2022-08-21T02:38:19.057Z,99.99
2022-08-21T02:39:27.341Z,99.99
2022-08-21T02:40:19.165Z,99.99
2022-08-21T02:42:19.154Z,99.99
2022-08-21T02:43:19.504Z,99.99
2022-08-21T02:45:19.759Z,99.99
2022-08-21T02:46:19.267Z,99.99
2022-08-21T02:47:19.510Z,99.99
2022-08-21T02:48:19.538Z,99.99
2022-08-21T02:49:19.363Z,99.99
2022-08-21T02:50:19.379Z,99.99
2022-08-21T02:51:19.414Z,99.99
2022-08-21T02:52:19.436Z,99.99
2022-08-21T02:53:20.185Z,99.99
2022-08-21T02:54:19.492Z,99.99
2022-08-21T02:55:19.527Z,99.99
2022-08-21T02:56:19.559Z,99.99
2022-08-21T02:57:19.585Z,99.99
2022-08-21T02:58:19.822Z,99.99
2022-08-21T02:59:19.642Z,99.99
2022-08-21T03:00:19.878Z,99.99
2022-08-21T03:01:20.491Z,99.99
2022-08-21T03:02:19.715Z,99.99
2022-08-21T03:03:19.741Z,99.99
2022-08-21T03:04:19.785Z,99.99
2022-08-21T03:05:19.869Z,99.99
2022-08-21T03:07:19.869Z,99.99
2022-08-21T03:08:19.893Z,99.99
2022-08-21T03:09:20.126Z,99.99
2022-08-21T03:10:20.151Z,99.99
2022-08-21T03:11:19.982Z,99.99
2022-08-21T03:14:20.260Z,99.99
2022-08-21T03:15:20.827Z,99.99
2022-08-21T03:16:20.519Z,99.99
2022-08-21T03:17:20.135Z,99.99
2022-08-21T03:18:20.173Z,99.99
2022-08-21T03:19:20.192Z,99.99
2022-08-21T03:20:20.267Z,99.99
2022-08-21T03:21:20.245Z,99.99
2022-08-21T03:22:20.273Z,99.99
2022-08-21T03:23:20.301Z,99.99
2022-08-21T03:24:21.294Z,99.99
2022-08-21T03:25:20.359Z,99.99
2022-08-21T03:26:20.386Z,99.99
2022-08-21T03:27:20.415Z,99.99
2022-08-21T03:28:20.439Z,99.99
2022-08-21T03:29:21.076Z,99.99
2022-08-21T03:30:21.102Z,99.99
2022-08-21T03:31:20.540Z,99.99
2022-08-21T03:32:20.552Z,99.99
2022-08-21T03:33:23.158Z,99.99
2022-08-21T03:35:20.636Z,99.99
2022-08-21T03:36:20.667Z,99.99
2022-08-21T03:37:20.691Z,99.99
2022-08-21T03:38:25.874Z,99.99
2022-08-21T03:39:20.750Z,99.99
2022-08-21T03:40:20.810Z,99.99
2022-08-21T03:41:20.804Z,99.99
2022-08-21T03:42:20.834Z,99.99
2022-08-21T03:43:20.859Z,99.99
2022-08-21T03:44:20.890Z,99.99
2022-08-21T03:45:20.915Z,99.99
2022-08-21T03:46:20.944Z,99.99
2022-08-21T03:47:20.973Z,99.99
2022-08-21T03:48:21.001Z,99.99
2022-08-21T03:49:21.025Z,99.99
2022-08-21T03:50:21.056Z,99.99
2022-08-21T03:51:21.084Z,99.99
2022-08-21T03:52:21.111Z,99.99
2022-08-21T03:53:21.138Z,99.99
2022-08-21T03:55:13.752Z,99.99
2022-08-21T03:56:13.771Z,99.99
2022-08-21T03:57:13.794Z,99.99
2022-08-21T03:58:16.570Z,99.99
2022-08-21T03:59:17.684Z,99.99
2022-08-21T04:00:13.890Z,99.99
2022-08-21T04:01:13.915Z,99.99
2022-08-21T04:02:13.948Z,99.99
2022-08-21T04:03:14.171Z,99.99
2022-08-21T04:06:14.058Z,99.99
2022-08-21T04:07:14.284Z,99.99
2022-08-21T04:09:14.139Z,99.99
2022-08-21T04:10:14.170Z,99.99
2022-08-21T04:11:14.193Z,99.99
2022-08-21T04:16:14.332Z,99.99
2022-08-21T04:17:14.358Z,99.99
2022-08-21T04:19:14.613Z,99.99
2022-08-21T04:22:14.706Z,99.99
2022-08-21T04:26:15.728Z,99.99
2022-08-21T04:27:14.635Z,99.99
2022-08-21T04:30:14.924Z,99.99
2022-08-21T04:31:14.734Z,99.99
2022-08-21T04:32:14.762Z,99.99
2022-08-21T04:33:14.800Z,99.99
2022-08-21T04:34:14.817Z,99.99
2022-08-21T04:35:14.841Z,99.99
2022-08-21T04:36:14.871Z,99.99
2022-08-21T04:37:14.896Z,99.99
2022-08-21T04:38:14.926Z,99.99
2022-08-21T04:39:14.952Z,99.99
2022-08-21T04:40:15.063Z,99.99
2022-08-21T04:41:15.006Z,99.99
2022-08-21T04:42:15.037Z,99.99
2022-08-21T04:43:15.063Z,99.99
2022-08-21T04:45:07.845Z,99.99
2022-08-21T04:46:07.874Z,99.99
2022-08-21T04:47:07.901Z,99.99
2022-08-21T04:48:13.332Z,99.99
2022-08-21T04:49:12.003Z,99.99
2022-08-21T04:50:08.793Z,99.99
2022-08-21T04:51:08.015Z,99.99
2022-08-21T04:55:08.120Z,99.99
2022-08-21T04:56:08.144Z,99.99
2022-08-21T04:57:08.173Z,99.99
2022-08-21T04:58:08.201Z,99.99
2022-08-21T04:59:08.430Z,99.99
2022-08-21T05:00:12.379Z,99.99
2022-08-21T05:01:08.399Z,99.99
2022-08-21T05:02:55.873Z,99.99
2022-08-21T05:03:55.902Z,99.99
2022-08-21T05:04:55.926Z,99.99
2022-08-21T05:05:55.959Z,99.99
2022-08-21T05:06:55.982Z,99.99
2022-08-21T05:07:56.012Z,99.99
2022-08-21T05:09:01.606Z,99.99
2022-08-21T05:10:29.481Z,99.99
2022-08-21T05:11:00.319Z,99.99
2022-08-21T05:11:56.124Z,99.99
2022-08-21T05:12:56.150Z,99.99
2022-08-21T05:15:43.766Z,99.99
2022-08-21T05:17:36.367Z,99.99
2022-08-21T05:18:36.396Z,99.99
2022-08-21T05:19:36.423Z,99.99
2022-08-21T05:20:36.458Z,99.99
2022-08-21T05:21:36.477Z,99.99
2022-08-21T05:22:36.507Z,99.99
2022-08-21T05:23:36.534Z,99.99
2022-08-21T05:24:36.562Z,99.99
2022-08-21T05:25:36.591Z,99.99
2022-08-21T05:26:45.332Z,99.99
2022-08-21T05:27:36.648Z,99.99
2022-08-21T05:28:36.677Z,99.99
2022-08-21T05:29:36.702Z,99.99
2022-08-21T05:30:36.732Z,99.99
2022-08-21T05:31:36.759Z,99.99
2022-08-21T05:32:36.789Z,99.99
2022-08-21T05:33:36.815Z,99.99
2022-08-21T05:34:36.849Z,99.99
2022-08-21T05:35:36.872Z,99.99
2022-08-21T05:36:36.902Z,99.99
2022-08-21T05:37:36.928Z,99.99
2022-08-21T05:38:36.957Z,99.99
2022-08-21T05:40:20.184Z,99.99
2022-08-21T05:40:37.030Z,99.99
2022-08-21T05:41:37.041Z,99.99
2022-08-21T05:42:37.072Z,99.99
2022-08-21T05:43:37.098Z,99.99
2022-08-21T05:44:37.128Z,99.99
2022-08-21T05:45:42.722Z,99.99
2022-08-21T05:46:37.186Z,99.99
2022-08-21T05:47:37.214Z,99.99
2022-08-21T05:48:37.244Z,99.99
2022-08-21T05:49:37.319Z,99.99
2022-08-21T05:50:37.298Z,99.99
2022-08-21T05:51:37.326Z,99.99
2022-08-21T05:52:37.372Z,99.99
2022-08-21T05:53:41.225Z,99.99
2022-08-21T05:54:37.410Z,99.99
2022-08-21T05:55:41.390Z,99.99
2022-08-21T05:56:37.684Z,99.99
2022-08-21T05:57:37.812Z,99.99
2022-08-21T05:58:37.539Z,99.99
2022-08-21T06:00:37.590Z,99.99
2022-08-21T06:01:37.690Z,99.99
2022-08-21T06:02:37.637Z,99.99
2022-08-21T06:03:37.668Z,99.99
2022-08-21T06:04:37.696Z,99.99
2022-08-21T06:05:37.779Z,99.99
2022-08-21T06:06:37.752Z,99.99
2022-08-21T06:07:37.785Z,99.99
2022-08-21T06:08:37.811Z,99.99
2022-08-21T06:09:37.842Z,99.99
2022-08-21T06:10:37.870Z,99.99
2022-08-21T06:11:37.916Z,99.99
2022-08-21T06:12:37.937Z,99.99
2022-08-21T06:13:37.965Z,99.99
2022-08-21T06:14:37.988Z,99.99
2022-08-21T06:15:38.020Z,99.99
2022-08-21T06:16:38.050Z,99.99
2022-08-21T06:17:38.081Z,99.99
2022-08-21T06:18:38.108Z,99.99
2022-08-21T06:19:38.139Z,99.99
2022-08-21T06:20:38.170Z,99.99
2022-08-21T06:21:38.200Z,99.99
2022-08-21T06:22:42.065Z,99.99
2022-08-21T06:23:38.262Z,99.99
2022-08-21T06:24:38.292Z,99.99
2022-08-21T06:25:38.323Z,99.99
2022-08-21T06:26:38.354Z,99.99
2022-08-21T06:27:38.397Z,99.99
2022-08-21T06:28:38.428Z,99.99
2022-08-21T06:29:44.638Z,99.99
2022-08-21T06:31:38.524Z,99.99
2022-08-21T06:32:38.559Z,99.99
2022-08-21T06:33:38.576Z,99.99
2022-08-21T06:34:38.931Z,99.99
2022-08-21T06:35:41.545Z,99.99
2022-08-21T06:36:38.688Z,99.99
2022-08-21T06:37:38.707Z,99.99
2022-08-21T06:38:38.751Z,99.99
2022-08-21T06:39:43.282Z,99.99
2022-08-21T06:40:43.784Z,99.99
2022-08-21T06:41:39.056Z,99.99
2022-08-21T06:42:38.867Z,99.99
2022-08-21T06:43:39.640Z,99.99
2022-08-21T06:44:38.933Z,99.99
2022-08-21T06:45:38.961Z,99.99
2022-08-21T06:46:38.996Z,99.99
2022-08-21T06:47:39.025Z,99.99
2022-08-21T06:48:39.064Z,99.99
2022-08-21T06:49:39.092Z,97.96
2022-08-21T06:50:39.340Z,96.75
2022-08-21T06:51:39.156Z,94.87
2022-08-21T06:52:39.190Z,94.14
2022-08-21T06:53:39.471Z,94.77
2022-08-21T06:54:39.262Z,95.35
2022-08-21T06:55:39.290Z,93.85
2022-08-21T06:56:39.329Z,93.07
2022-08-21T06:57:39.355Z,91.91
2022-08-21T06:58:39.593Z,90.89
2022-08-21T06:59:39.424Z,89.69
2022-08-21T07:00:39.459Z,90.31
2022-08-21T07:01:39.529Z,89.25
2022-08-21T07:02:41.510Z,88.71
2022-08-21T07:03:39.563Z,86.43
2022-08-21T07:04:39.600Z,86.23
2022-08-21T07:05:39.632Z,86.13
2022-08-21T07:06:39.672Z,86.33
2022-08-21T07:08:37.299Z,85.65
2022-08-21T07:09:37.538Z,85.30
2022-08-21T07:10:37.574Z,84.72
2022-08-21T07:11:43.228Z,84.92
2022-08-21T07:12:37.443Z,84.92
2022-08-21T07:13:37.482Z,85.07
2022-08-21T07:14:37.514Z,84.68
2022-08-21T07:16:37.590Z,85.02
2022-08-21T07:21:20.743Z,81.41
2022-08-21T07:23:06.417Z,82.34
2022-08-21T07:24:06.257Z,83.27
2022-08-21T07:25:06.293Z,82.15
2022-08-21T07:26:06.330Z,81.99
2022-08-21T07:27:09.906Z,80.73
2022-08-21T07:28:06.410Z,80.48
2022-08-21T07:29:06.449Z,80.25
2022-08-21T07:30:06.690Z,80.29
2022-08-21T07:31:06.527Z,79.12
2022-08-21T07:32:06.566Z,79.22
2022-08-21T07:33:06.602Z,78.48
2022-08-21T07:34:06.642Z,77.80
2022-08-21T07:35:06.680Z,77.64
2022-08-21T07:36:06.721Z,78.23
2022-08-21T07:37:10.019Z,77.29
2022-08-21T07:38:06.799Z,77.12
2022-08-21T07:41:06.917Z,78.15
2022-08-21T07:42:08.554Z,78.54
2022-08-21T07:43:07.001Z,77.28
2022-08-21T07:44:07.037Z,76.98
2022-08-21T07:45:07.076Z,76.83
2022-08-21T07:46:07.111Z,76.40
2022-08-21T07:47:07.151Z,76.46
2022-08-21T07:48:07.204Z,77.18
2022-08-21T07:49:07.234Z,77.31
2022-08-21T07:51:07.312Z,76.15
2022-08-21T07:52:09.977Z,75.85
2022-08-21T07:53:07.389Z,76.34
2022-08-21T07:54:07.432Z,75.80
2022-08-21T07:55:07.472Z,75.54
2022-08-21T07:56:07.513Z,75.38
2022-08-21T07:57:07.869Z,74.32
2022-08-21T07:58:07.591Z,73.83
2022-08-21T07:59:07.630Z,72.21
2022-08-21T08:00:07.674Z,73.18
2022-08-21T08:01:07.778Z,72.86
2022-08-21T08:02:07.751Z,73.11
2022-08-21T08:03:07.790Z,73.63
2022-08-21T08:04:07.833Z,73.63
2022-08-21T08:05:07.872Z,73.40
2022-08-21T08:06:07.912Z,73.93
2022-08-21T08:07:07.958Z,73.44
2022-08-21T08:08:07.995Z,73.38
2022-08-21T08:09:08.029Z,72.73
2022-08-21T08:10:08.092Z,72.25
2022-08-21T08:11:08.111Z,71.56
2022-08-21T08:12:08.154Z,71.17
2022-08-21T08:13:10.576Z,70.98
2022-08-21T08:14:08.233Z,70.98
2022-08-21T08:15:08.271Z,70.88
2022-08-21T08:16:08.312Z,71.17
2022-08-21T08:17:08.351Z,71.37
2022-08-21T08:18:08.394Z,70.92
2022-08-21T08:19:08.433Z,70.33
2022-08-21T08:20:08.477Z,69.56
2022-08-21T08:21:08.515Z,69.07
2022-08-21T08:22:08.557Z,69.17
2022-08-21T08:23:08.595Z,68.87
2022-08-21T08:24:18.758Z,68.71
2022-08-21T08:25:09.584Z,68.48
2022-08-21T08:26:08.718Z,69.36
2022-08-21T08:27:08.759Z,68.32
2022-08-21T08:28:16.651Z,68.32
2022-08-21T08:29:08.840Z,68.71
2022-08-21T08:30:08.894Z,68.16
2022-08-21T08:31:08.920Z,67.83
2022-08-21T08:32:08.963Z,67.74
2022-08-21T08:33:09.002Z,68.32
2022-08-21T08:34:09.043Z,68.74
2022-08-21T08:35:09.085Z,69.20
2022-08-21T08:36:09.126Z,70.23
2022-08-21T08:37:09.163Z,70.36
2022-08-21T08:38:09.206Z,70.36
2022-08-21T08:39:09.245Z,69.03
2022-08-21T08:40:09.329Z,69.32
2022-08-21T08:41:09.326Z,67.70
2022-08-21T08:42:32.262Z,67.41
2022-08-21T08:43:09.410Z,66.56
2022-08-21T08:44:09.454Z,66.76
2022-08-21T08:45:09.491Z,66.99
2022-08-21T08:46:09.532Z,66.79
2022-08-21T08:47:09.572Z,66.86
2022-08-21T08:48:14.230Z,67.28
2022-08-21T08:49:09.653Z,66.60
2022-08-21T08:50:09.696Z,65.30
2022-08-21T08:51:09.736Z,65.98
2022-08-21T08:52:09.778Z,66.21
2022-08-21T08:53:09.817Z,66.73
2022-08-21T08:54:09.859Z,66.44
2022-08-21T08:55:09.899Z,66.27
2022-08-21T08:56:09.939Z,66.41
2022-08-21T08:57:09.981Z,65.59
2022-08-21T08:58:10.023Z,63.44
2022-08-21T08:59:10.074Z,63.15
2022-08-21T09:00:10.106Z,64.13
2022-08-21T09:01:10.164Z,64.65
2022-08-21T09:02:10.186Z,65.23
2022-08-21T09:03:10.226Z,65.14
2022-08-21T09:04:10.267Z,65.07
2022-08-21T09:05:10.305Z,65.23
2022-08-21T09:06:10.348Z,65.33
2022-08-21T09:07:10.388Z,65.50
2022-08-21T09:08:10.429Z,65.04
2022-08-21T09:09:10.478Z,64.45
2022-08-21T09:10:10.529Z,64.84
2022-08-21T09:11:10.547Z,64.94
2022-08-21T09:12:10.607Z,63.90
2022-08-21T09:13:10.643Z,64.78
2022-08-21T09:14:10.673Z,63.90
2022-08-21T09:15:10.710Z,63.51
2022-08-21T09:16:10.753Z,63.31
2022-08-21T09:17:10.791Z,64.19
2022-08-21T09:18:10.839Z,63.21
2022-08-21T09:19:10.874Z,63.31
2022-08-21T09:20:10.914Z,62.85
2022-08-21T09:21:10.956Z,62.85
2022-08-21T09:22:10.999Z,62.56
2022-08-21T09:23:11.036Z,63.54
2022-08-21T09:24:11.079Z,62.56
2022-08-21T09:25:11.121Z,62.30
2022-08-21T09:26:11.159Z,61.23
2022-08-21T09:27:11.198Z,61.43
2022-08-21T09:28:11.241Z,61.27
2022-08-21T09:29:11.280Z,62.12
2022-08-21T09:30:11.321Z,62.60
2022-08-21T09:31:11.359Z,62.79
2022-08-21T09:32:15.362Z,62.73
2022-08-21T09:33:11.440Z,61.59
2022-08-21T09:34:11.492Z,61.49
2022-08-21T09:35:11.520Z,61.88
2022-08-21T09:36:11.562Z,61.91
2022-08-21T09:37:11.609Z,62.01
2022-08-21T09:38:11.640Z,61.33
2022-08-21T09:39:11.679Z,60.96
2022-08-21T09:40:11.953Z,59.86
2022-08-21T09:41:11.758Z,61.04
2022-08-21T09:42:11.802Z,60.42
2022-08-21T09:43:11.838Z,60.88
2022-08-21T09:44:11.901Z,62.63
2022-08-21T09:45:11.918Z,63.78
2022-08-21T09:46:11.959Z,65.72
2022-08-21T09:47:11.995Z,64.72
2022-08-21T09:48:12.038Z,63.96
2022-08-21T09:49:15.023Z,64.49
2022-08-21T09:50:12.114Z,65.04
2022-08-21T09:51:12.149Z,64.78
2022-08-21T09:52:12.190Z,64.26
2022-08-21T09:53:12.226Z,62.82
2022-08-21T09:54:12.266Z,62.44
2022-08-21T09:55:12.302Z,61.43
2022-08-21T09:56:12.344Z,61.33
2022-08-21T09:57:12.378Z,60.96
2022-08-21T09:58:12.418Z,61.09
2022-08-21T09:59:12.453Z,60.50
2022-08-21T10:00:12.494Z,59.79
2022-08-21T10:01:12.609Z,60.31
2022-08-21T10:02:15.192Z,59.89
2022-08-21T10:03:12.608Z,61.04
2022-08-21T10:04:12.647Z,61.10
2022-08-21T10:05:12.683Z,61.85
2022-08-21T10:06:12.721Z,62.92
2022-08-21T10:07:12.760Z,63.02
2022-08-21T10:08:12.798Z,62.63
2022-08-21T10:09:18.768Z,62.79
2022-08-21T10:10:12.875Z,62.89
2022-08-21T10:11:12.909Z,62.53
2022-08-21T10:12:12.949Z,61.59
2022-08-21T10:13:13.035Z,61.49
2022-08-21T10:14:13.025Z,62.15
2022-08-21T10:15:13.059Z,62.66
2022-08-21T10:16:13.102Z,61.43
2022-08-21T10:17:13.136Z,61.40
2022-08-21T10:18:13.174Z,60.81
2022-08-21T10:19:13.208Z,61.79
2022-08-21T10:20:13.247Z,61.52
2022-08-21T10:21:13.287Z,61.66
2022-08-21T10:22:13.324Z,60.97
2022-08-21T10:23:13.359Z,61.53
2022-08-21T10:24:31.277Z,62.12
2022-08-21T10:25:13.434Z,62.79
2022-08-21T10:26:14.530Z,63.28
2022-08-21T10:27:13.507Z,63.12
2022-08-21T10:28:14.113Z,62.08
2022-08-21T10:29:13.583Z,62.01
2022-08-21T10:30:13.696Z,60.60
2022-08-21T10:31:13.655Z,59.59
2022-08-21T10:32:17.316Z,59.59
2022-08-21T10:33:13.778Z,59.59
2022-08-21T10:34:13.817Z,59.59
2022-08-21T10:35:13.804Z,60.08
2022-08-21T10:36:13.844Z,59.89
2022-08-21T10:37:13.876Z,59.89
2022-08-21T10:38:28.202Z,59.30
2022-08-21T10:39:34.903Z,59.69
2022-08-21T10:40:14.208Z,59.99
2022-08-21T10:41:14.024Z,59.89
2022-08-21T10:42:14.062Z,59.47
2022-08-21T10:43:14.096Z,60.97
2022-08-21T10:44:14.137Z,61.27
2022-08-21T10:45:14.170Z,60.81
2022-08-21T10:46:14.207Z,60.42
2022-08-21T10:47:14.244Z,61.30
2022-08-21T10:48:14.281Z,61.10
2022-08-21T10:49:14.320Z,61.13
2022-08-21T10:50:14.355Z,59.69
2022-08-21T10:51:14.390Z,59.96
2022-08-21T10:52:14.426Z,60.16
2022-08-21T10:53:14.459Z,59.93
2022-08-21T10:54:14.497Z,61.20
2022-08-21T10:55:14.533Z,61.27
2022-08-21T10:56:14.571Z,61.82
2022-08-21T10:57:14.605Z,61.99
2022-08-21T10:58:14.644Z,61.69
2022-08-21T10:59:14.678Z,62.08
2022-08-21T11:00:14.717Z,62.08
2022-08-21T11:01:14.873Z,61.24
2022-08-21T11:02:14.789Z,60.06
2022-08-21T11:03:14.823Z,60.06
2022-08-21T11:04:14.861Z,59.90
2022-08-21T11:05:14.898Z,60.94
2022-08-21T11:06:14.933Z,60.39
2022-08-21T11:07:17.407Z,61.14
2022-08-21T11:08:15.004Z,60.97
2022-08-21T11:09:15.039Z,60.97
2022-08-21T11:10:15.078Z,61.79
2022-08-21T11:11:16.041Z,62.57
2022-08-21T11:12:15.147Z,63.02
2022-08-21T11:13:15.183Z,63.32
2022-08-21T11:14:15.218Z,63.97
2022-08-21T11:15:29.272Z,64.52
2022-08-21T11:16:15.291Z,65.40
2022-08-21T11:17:17.267Z,65.59
2022-08-21T11:18:15.363Z,65.59
2022-08-21T11:19:15.395Z,65.23
2022-08-21T11:20:15.433Z,64.65
2022-08-21T11:21:15.464Z,64.29
2022-08-21T11:22:15.601Z,64.00
2022-08-21T11:23:15.536Z,63.48
2022-08-21T11:24:15.572Z,64.59
2022-08-21T11:25:15.608Z,65.66
2022-08-21T11:26:15.640Z,65.89
2022-08-21T11:27:15.675Z,67.34
2022-08-21T11:28:15.711Z,67.60
2022-08-21T11:29:15.745Z,68.28
2022-08-21T11:30:15.781Z,68.54
2022-08-21T11:31:15.814Z,69.54
2022-08-21T11:32:15.851Z,67.96
2022-08-21T11:33:15.884Z,67.89
2022-08-21T11:34:15.920Z,67.89
2022-08-21T11:35:15.953Z,68.05
2022-08-21T11:36:15.990Z,69.22
2022-08-21T11:37:16.022Z,69.22
2022-08-21T11:38:16.058Z,69.60
2022-08-21T11:39:16.089Z,70.19
2022-08-21T11:40:16.247Z,70.48
2022-08-21T11:41:16.160Z,69.70
2022-08-21T11:42:16.194Z,69.22
2022-08-21T11:43:16.233Z,69.45
2022-08-21T11:44:16.264Z,68.18
2022-08-21T11:45:16.298Z,68.22
2022-08-21T11:46:16.330Z,67.93
2022-08-21T11:47:16.369Z,67.44
2022-08-21T11:48:16.403Z,67.50
2022-08-21T11:49:16.433Z,67.96
2022-08-21T11:50:34.125Z,68.35
2022-08-21T11:51:16.506Z,68.67
2022-08-21T11:52:16.552Z,69.25
2022-08-21T11:53:16.892Z,68.96
2022-08-21T11:54:17.015Z,68.57
2022-08-21T11:55:16.646Z,67.99
2022-08-21T11:56:16.880Z,67.80
2022-08-21T11:57:17.114Z,68.38
2022-08-21T11:58:16.748Z,68.35
2022-08-21T12:02:14.544Z,67.21
2022-08-21T12:03:14.462Z,67.11
2022-08-21T12:04:14.492Z,67.11
2022-08-21T12:05:14.529Z,67.02
2022-08-21T12:06:14.564Z,67.18
2022-08-21T12:07:14.597Z,66.99
2022-08-21T12:08:14.629Z,67.80
2022-08-21T12:11:32.550Z,67.41
2022-08-21T12:12:33.394Z,67.21
2022-08-21T12:13:39.821Z,67.21
2022-08-21T12:24:28.438Z,65.04
2022-08-21T12:25:28.466Z,65.53
2022-08-21T12:26:28.500Z,65.43
2022-08-21T12:27:28.531Z,65.63
2022-08-21T12:28:28.564Z,65.43
2022-08-21T12:29:28.598Z,64.46
2022-08-21T12:30:28.631Z,65.33
2022-08-21T12:31:28.665Z,65.59
2022-08-21T12:32:28.697Z,66.21
2022-08-21T12:33:28.731Z,65.53
2022-08-21T12:34:28.762Z,65.01
2022-08-21T12:35:28.796Z,64.91
2022-08-21T12:36:28.832Z,65.59
2022-08-21T12:37:28.863Z,65.79
2022-08-21T12:38:28.895Z,66.17
2022-08-21T12:39:28.931Z,65.11
2022-08-21T12:40:28.962Z,64.91
2022-08-21T12:41:29.011Z,65.50
2022-08-21T12:42:29.029Z,65.50
2022-08-21T12:43:29.064Z,65.30
2022-08-21T12:44:29.094Z,64.91
2022-08-21T12:45:29.137Z,64.81
2022-08-21T12:46:29.161Z,65.69
2022-08-21T12:47:29.215Z,65.98
2022-08-21T12:48:29.441Z,66.08
2022-08-21T12:50:29.715Z,66.92
2022-08-21T12:54:29.849Z,66.60
2022-08-21T13:10:56.250Z,66.66
2022-08-21T13:12:32.591Z,66.44
2022-08-21T13:14:32.010Z,66.56
2022-08-21T13:15:33.425Z,66.47
2022-08-21T13:23:31.916Z,66.21
2022-08-21T13:26:30.495Z,66.79
2022-08-21T13:27:30.526Z,66.69
2022-08-21T13:28:30.561Z,67.18
2022-08-21T13:29:30.578Z,66.79
2022-08-21T13:30:30.833Z,67.08
2022-08-21T13:31:30.847Z,66.50
2022-08-21T13:32:30.882Z,67.21
2022-08-21T13:34:30.756Z,66.56
2022-08-21T13:35:30.779Z,66.56
2022-08-21T13:37:30.854Z,65.79
2022-08-21T13:38:30.936Z,65.79
2022-08-21T13:39:31.112Z,65.79
2022-08-21T13:40:31.162Z,67.05
2022-08-21T13:41:30.975Z,67.15
2022-08-21T13:42:31.027Z,67.24
2022-08-21T13:43:31.256Z,67.05
2022-08-21T13:44:31.296Z,66.96
2022-08-21T13:45:31.116Z,66.47
2022-08-21T13:46:31.463Z,66.37
2022-08-21T13:47:31.491Z,66.17
2022-08-21T13:48:31.221Z,65.92
2022-08-21T13:49:31.455Z,65.63
2022-08-21T13:50:31.283Z,64.95
2022-08-21T13:51:31.323Z,65.11
2022-08-21T13:52:31.351Z,65.89
2022-08-21T13:53:31.688Z,66.27
2022-08-21T13:54:31.621Z,66.56
2022-08-21T13:56:31.481Z,66.72
2022-08-21T13:57:31.720Z,67.11
2022-08-21T13:59:31.782Z,67.57
2022-08-21T14:00:31.618Z,67.99
2022-08-21T14:01:31.706Z,67.66
2022-08-21T14:02:32.288Z,67.31
2022-08-21T14:03:31.712Z,67.99
2022-08-21T14:04:31.749Z,67.02
2022-08-21T14:33:49.574Z,68.93
2022-08-21T14:34:49.608Z,68.63
2022-08-21T14:35:49.640Z,69.12
2022-08-21T14:36:49.674Z,68.60
2022-08-21T14:37:50.134Z,69.41
2022-08-21T14:38:49.738Z,69.80
2022-08-21T14:39:49.802Z,69.76
2022-08-21T14:40:49.803Z,69.57
2022-08-21T14:41:49.836Z,69.28
2022-08-21T14:42:49.868Z,69.18
2022-08-21T14:44:01.218Z,70.03
2022-08-21T14:44:49.933Z,69.76
2022-08-21T14:45:49.974Z,69.64
2022-08-21T14:46:56.128Z,69.54
2022-08-21T14:47:50.028Z,69.64
2022-08-21T14:48:50.064Z,69.83
2022-08-21T14:49:50.095Z,70.21
2022-08-21T14:50:50.129Z,70.12
2022-08-21T14:51:54.157Z,70.70
2022-08-21T14:52:50.193Z,70.28
2022-08-21T14:53:50.224Z,70.28
2022-08-21T14:54:50.258Z,71.34
2022-08-21T14:55:50.289Z,70.90
2022-08-21T14:56:50.324Z,70.37
2022-08-21T15:03:09.642Z,71.25
2022-08-21T15:04:09.676Z,71.73
2022-08-21T15:05:09.707Z,71.44
2022-08-21T15:06:09.744Z,70.67
2022-08-21T15:07:09.770Z,70.76
2022-08-21T15:08:09.805Z,70.86
2022-08-21T15:09:09.834Z,70.28
2022-08-21T15:10:09.998Z,70.37
2022-08-21T15:11:13.699Z,70.67
2022-08-21T15:12:09.933Z,70.47
2022-08-21T15:13:09.963Z,71.15
2022-08-21T15:14:09.998Z,70.57
2022-08-21T15:15:10.026Z,69.89
2022-08-21T15:16:10.060Z,69.41
2022-08-21T15:17:10.092Z,69.50
2022-08-21T15:18:10.124Z,69.41
2022-08-21T15:19:10.157Z,69.50
2022-08-21T15:20:10.189Z,70.37
2022-08-21T15:21:10.219Z,69.41
2022-08-21T15:22:18.866Z,69.12
2022-08-21T15:23:14.731Z,68.92
2022-08-21T15:24:10.317Z,69.02
2022-08-21T15:25:10.348Z,69.60
2022-08-21T15:26:10.385Z,69.60
2022-08-21T15:27:10.411Z,69.60
2022-08-21T15:28:10.446Z,69.70
2022-08-21T15:29:10.563Z,69.60
2022-08-21T15:30:10.512Z,68.63
2022-08-21T15:31:10.539Z,68.34
2022-08-21T15:32:10.574Z,68.63
2022-08-21T15:33:10.604Z,68.63
2022-08-21T15:34:10.640Z,68.34
2022-08-21T15:35:10.668Z,68.63
2022-08-21T15:36:10.702Z,68.24
2022-08-21T15:37:10.733Z,68.24
2022-08-21T15:38:11.229Z,68.96
2022-08-21T15:39:10.797Z,69.50
2022-08-21T15:40:10.928Z,68.86
2022-08-21T15:41:10.861Z,69.44
2022-08-21T15:42:11.489Z,68.73
2022-08-21T15:43:10.925Z,68.86
2022-08-21T15:44:10.965Z,69.06
2022-08-21T15:45:10.990Z,68.76
2022-08-21T15:46:11.023Z,68.86
2022-08-21T15:47:11.054Z,68.18
2022-08-21T15:48:11.090Z,68.86
2022-08-21T15:49:11.118Z,68.18
2022-08-21T15:50:11.155Z,68.57
2022-08-21T15:51:11.184Z,68.96
2022-08-21T15:52:11.216Z,68.37
2022-08-21T15:53:11.247Z,68.18
2022-08-21T15:54:11.281Z,68.18
2022-08-21T15:55:11.312Z,68.37
2022-08-21T15:56:11.345Z,68.96
2022-08-21T15:57:11.377Z,68.76
2022-08-21T15:58:11.423Z,69.02
2022-08-21T15:59:11.440Z,68.18
2022-08-21T16:00:11.491Z,68.96
2022-08-21T16:01:11.613Z,68.24
2022-08-21T16:02:11.540Z,68.73